Kansai International Airport
RJBB : now visible

Airfield :











YOU CAN JOIN US ON...

 
LOGIN :

Register | Disclaimer

   EN    FR    IT 

 









Legend :    VFR   Marginal VFR   IFR   Intensive IFR   Very Intensive IFR
Visi :
Ceiling :
>= 8 km
>= 3000ft
5 to 8 km
1000 to 3000 ft
1500m to 5 km
500 to 1000 ft
800 to 1500m
200 to 500 ft
< 800m
< 200 ft
Symbols :   Thunderstorms  Fog  Heavy snow  Heavy precipitations  Wind > 20 kt






- Airport Elevation : 26 ft
- IATA code : KIX


RJBB - Kansai International

CURRENT METAR :
  • 251930Z AUTO 30009KT 9999 FEW025 BKN044 23/20 Q1006 NOSIG

EXPIRED METARs :
  • 251900Z AUTO 28009KT 9999 FEW019 BKN042 23/20 Q1006 NOSIG
  • 251830Z AUTO 30009KT 9999 NSC 23/20 Q1006 NOSIG
  • 251800Z AUTO 30007KT 9999 NCD 23/20 Q1006 NOSIG
  • 251730Z AUTO 30011KT 9999 FEW021 SCT041 23/20 Q1006 NOSIG
  • 251700Z AUTO 29008KT 9999 FEW021 SCT041 23/20 Q1006 NOSIG
  • 251630Z AUTO 29007KT 9999 FEW017 SCT038 OVC042 23/20 Q1006 NOSIG

TAF TAF RJBB
Valid from the 25 at 18:00 until the 27 at 00:00 UTC


251707Z 2518/2700 31009KT 9999 FEW020 SCT045
BECMG 2606/2609 34009KT
BECMG 2621/2700 31008KT
RJJJ FIR / Asia



MET'MAP, your aeronautical weather chart ! - Copyright ORBIFLY December 2007 - Disclaimer

ORBIFLY MET'MAP TEAM :

Programming & Development : Alexandra Zaïnal
Concept & original design : Baudouin d'Aumeries
Assistance for programming : Marc-Olivier Méhu
Technical & hardware support : Manuel Goepfert

Contact : metmap@orbifly.com




SOURCES & CREDITS :

   NOAA       Earth
Advisory